Antonio Ramos — CUCT9 — position and weather

sailwx.info

Track history (hours):
 
Tides and Currents Weather Stations Pressure Air Temp Water Temp Dewpoint Dewpoint Depression Visibility Wind Speed Wind Dir Waves Ship Positions

Antonio Ramos

Last reported at 2018-Jun-17 05:34 UTC. Time now 2018-Jun-18 19:32 UTC.
Position N 38°03' W 009°11'.

Type: Fishing. MMSI: 263406740.

Date/timePositionNaut miles runAvg speedWind from/ knotsBaromVisibWave heightAir tempDewpointWater temp
2018-Jun-17 05:34N 38°03' W 009°11'0 7.2
2018-Jun-17 05:31N 38°03' W 009°11'4 7.2
2018-Jun-17 05:01N 38°07' W 009°10'3 7.0
2018-Jun-17 04:30N 38°10' W 009°09'3 6.9
2018-Jun-17 04:00N 38°14' W 009°09'4 7.0
2018-Jun-17 03:30N 38°17' W 009°08'4 7.1
2018-Jun-17 03:00N 38°21' W 009°08'4 7.1
2018-Jun-17 02:29N 38°24' W 009°07'2 3.9
2018-Jun-17 02:00N 38°26' W 009°07'0 0.0
2018-Jun-17 01:30N 38°26' W 009°07'0 0.0
2018-Jun-17 01:01N 38°26' W 009°07'0 0.0
2018-Jun-17 00:30N 38°26' W 009°07'0 0.0
2018-Jun-16 23:57N 38°26' W 009°07'0 0.0
2018-Jun-16 23:30N 38°26' W 009°07'0 0.0
2018-Jun-16 23:00N 38°26' W 009°07'0 0.0
2018-Jun-16 22:29N 38°26' W 009°07'0 0.0
2018-Jun-16 22:00N 38°26' W 009°07'0 0.0
2018-Jun-16 21:30N 38°26' W 009°07'1 2.6
2018-Jun-16 20:58N 38°25' W 009°07'2 5.0
2018-Jun-16 20:30N 38°23' W 009°07'2 4.3
2018-Jun-16 20:00N 38°21' W 009°07'2 4.5
2018-Jun-16 19:30N 38°18' W 009°07'18 1.4
2018-Jun-16 06:26N 38°00' W 009°11'1 2.9
2018-Jun-16 06:00N 38°01' W 009°10'3 5.9
2018-Jun-16 05:30N 37°60' W 009°06'3 6.0
2018-Jun-16 05:00N 37°59' W 009°03'3 5.9
2018-Jun-16 04:31N 37°58' W 008°59'3 6.0
2018-Jun-16 04:00N 37°57' W 008°56'3 5.2
2018-Jun-16 03:30N 37°57' W 008°52'0 0.1
2018-Jun-15 22:43N 37°57' W 008°52'0 0.0
2018-Jun-15 22:30N 37°57' W 008°52'0 0.0
2018-Jun-15 22:00N 37°57' W 008°52'0 0.0
2018-Jun-15 21:30N 37°57' W 008°52'0 0.0
2018-Jun-15 21:00N 37°57' W 008°52'0 0.0
2018-Jun-15 20:30N 37°57' W 008°52'0 0.0
2018-Jun-15 20:00N 37°57' W 008°52'0 0.9
2018-Jun-15 19:30N 37°57' W 008°52'3 5.8
2018-Jun-15 19:00N 37°56' W 008°56'3 6.8
2018-Jun-15 18:30N 37°58' W 009°00'9 0.8
2018-Jun-15 06:53N 38°01' W 009°11'3 7.0
2018-Jun-15 06:30N 38°04' W 009°10'4 7.0
2018-Jun-15 06:00N 38°08' W 009°10'3 7.1
2018-Jun-15 05:31N 38°11' W 009°09'4 7.0
2018-Jun-15 05:01N 38°14' W 009°08'3 6.9
2018-Jun-15 04:31N 38°18' W 009°08'6 7.2
2018-Jun-15 03:39N 38°24' W 009°07'1 7.5
2018-Jun-15 03:30N 38°25' W 009°06'1 0.3
2018-Jun-14 23:30N 38°26' W 009°07'0 0.0
2018-Jun-14 23:00N 38°26' W 009°07'0 0.0
2018-Jun-14 22:30N 38°26' W 009°07'0 0.0
2018-Jun-14 22:00N 38°26' W 009°07'0 0.0
2018-Jun-14 21:28N 38°26' W 009°07'0 0.0
2018-Jun-14 20:57N 38°26' W 009°07'0 0.0
2018-Jun-14 20:30N 38°26' W 009°07'0 0.0
2018-Jun-14 20:00N 38°26' W 009°07'0 0.0
2018-Jun-14 19:30N 38°26' W 009°07'0 0.0
2018-Jun-14 19:00N 38°26' W 009°07'0 0.0
2018-Jun-14 18:29N 38°26' W 009°07'0 0.0
2018-Jun-14 17:58N 38°26' W 009°07'0 0.0
2018-Jun-14 17:30N 38°26' W 009°07'0 0.0
2018-Jun-14 17:00N 38°26' W 009°07'0 0.0
2018-Jun-14 16:30N 38°26' W 009°07'0 0.0
2018-Jun-14 16:00N 38°26' W 009°07'0 0.2
2018-Jun-14 15:30N 38°26' W 009°07'2 4.3
2018-Jun-14 15:00N 38°24' W 009°07'4 7.5
2018-Jun-14 14:30N 38°20' W 009°07'3 7.0
2018-Jun-14 14:01N 38°17' W 009°08'3 6.8
2018-Jun-14 13:31N 38°14' W 009°08'23 3.0
2018-Jun-14 06:04N 37°51' W 009°13'0 2.2
2018-Jun-14 06:00N 37°51' W 009°13'1 2.6
2018-Jun-14 05:31N 37°50' W 009°13'2 3.7
2018-Jun-14 05:00N 37°51' W 009°11'4 7.2
2018-Jun-14 04:30N 37°52' W 009°06'3 6.9
2018-Jun-14 04:01N 37°53' W 009°02'3 6.8
2018-Jun-14 03:30N 37°54' W 008°58'4 7.1
2018-Jun-14 03:01N 37°56' W 008°54'2 3.8
2018-Jun-14 02:29N 37°57' W 008°52'0 0.0
2018-Jun-14 02:00N 37°57' W 008°52'0 0.0
2018-Jun-14 01:30N 37°57' W 008°52'0 0.0
2018-Jun-14 01:00N 37°57' W 008°52'0 0.0
2018-Jun-14 00:30N 37°57' W 008°52'0 0.0
2018-Jun-14 00:00N 37°57' W 008°52'0 0.0
2018-Jun-13 23:30N 37°57' W 008°52'0 0.0
2018-Jun-13 23:00N 37°57' W 008°52'0 0.0
2018-Jun-13 22:30N 37°57' W 008°52'0 0.0
2018-Jun-13 22:00N 37°57' W 008°52'0 0.0
2018-Jun-13 21:30N 37°57' W 008°52'2 4.7
2018-Jun-13 21:00N 37°55' W 008°54'3 6.7
2018-Jun-13 20:31N 37°53' W 008°58'3 6.0
2018-Jun-13 20:01N 37°51' W 009°01'2 4.3
2018-Jun-13 19:31N 37°50' W 009°03'11 0.9
2018-Jun-13 06:18N 37°60' W 009°11'1 2.6
2018-Jun-13 06:01N 38°00' W 009°11'3 5.6
2018-Jun-13 05:30N 38°03' W 009°10'4 7.4
2018-Jun-13 05:01N 38°07' W 009°10'4 7.5
2018-Jun-13 04:31N 38°10' W 009°09'4 7.5
2018-Jun-13 04:00N 38°14' W 009°08'4 7.5
2018-Jun-13 03:31N 38°18' W 009°08'5 7.7
2018-Jun-13 02:48N 38°23' W 009°07'3 7.7
2018-Jun-13 02:26N 38°26' W 009°06'1 1.3
2018-Jun-13 02:00N 38°26' W 009°07'0 0.0
2018-Jun-13 01:29N 38°26' W 009°07'0 0.0
2018-Jun-13 01:00N 38°26' W 009°07'0 0.0
2018-Jun-13 00:29N 38°26' W 009°07'0 0.0
2018-Jun-13 00:00N 38°26' W 009°07'0 0.0
2018-Jun-12 23:30N 38°26' W 009°07'0 0.0
2018-Jun-12 23:00N 38°26' W 009°07'0 0.0
2018-Jun-12 22:30N 38°26' W 009°07'0 0.0
2018-Jun-12 22:00N 38°26' W 009°07'0 0.0
2018-Jun-12 21:30N 38°26' W 009°07'0 0.0
2018-Jun-12 21:00N 38°26' W 009°07'0 0.0
2018-Jun-12 20:30N 38°26' W 009°07'0 0.0
2018-Jun-12 20:00N 38°26' W 009°07'0 0.0
2018-Jun-12 19:30N 38°26' W 009°07'0 0.0
2018-Jun-12 19:00N 38°26' W 009°07'0 0.0
2018-Jun-12 18:30N 38°26' W 009°07'0 0.0
2018-Jun-12 18:00N 38°26' W 009°07'0 0.0
2018-Jun-12 17:30N 38°26' W 009°07'0 0.0
2018-Jun-12 17:00N 38°26' W 009°07'0 0.0
2018-Jun-12 16:30N 38°26' W 009°07'2 4.8
2018-Jun-12 16:00N 38°24' W 009°07'4 7.4
2018-Jun-12 15:30N 38°20' W 009°07'4 7.1
2018-Jun-12 15:01N 38°17' W 009°08'4 7.0
2018-Jun-12 14:31N 38°13' W 009°08'3 6.8
2018-Jun-12 14:01N 38°10' W 009°08'  
2018-Jun-10 06:52N 37°57' W 009°12'1 2.5
2018-Jun-10 06:31N 37°58' W 009°12'1 2.4
2018-Jun-10 06:01N 37°59' W 009°12'1 2.6
2018-Jun-10 05:31N 38°00' W 009°11'0 0.6
2018-Jun-10 05:01N 38°01' W 009°11'3 5.6
2018-Jun-10 04:31N 38°03' W 009°10'4 7.1
2018-Jun-10 04:00N 38°07' W 009°10'4 7.1
2018-Jun-10 03:31N 38°10' W 009°09'4 7.4
2018-Jun-10 03:01N 38°14' W 009°09'4 7.4
2018-Jun-10 02:30N 38°18' W 009°08'4 7.3
2018-Jun-10 01:59N 38°22' W 009°07'4 7.3
2018-Jun-10 01:26N 38°25' W 009°07'1 2.1
2018-Jun-10 01:01N 38°26' W 009°07'0 0.0
2018-Jun-10 00:30N 38°26' W 009°07'0 0.0
2018-Jun-10 00:00N 38°26' W 009°07'0 0.0
2018-Jun-09 23:30N 38°26' W 009°07'0 0.0
2018-Jun-09 22:56N 38°26' W 009°07'0 0.0
2018-Jun-09 22:31N 38°26' W 009°07'0 0.0
2018-Jun-09 21:55N 38°26' W 009°07'0 0.0
2018-Jun-09 21:30N 38°26' W 009°07'1 2.2
2018-Jun-09 21:01N 38°25' W 009°06'4 7.4
2018-Jun-09 20:29N 38°21' W 009°06'4 7.4
2018-Jun-09 19:59N 38°18' W 009°07'3 7.3
2018-Jun-09 19:31N 38°14' W 009°08'4 7.2
2018-Jun-09 19:01N 38°11' W 009°08'17 0.5
2018-Jun-08 06:39N 37°55' W 009°12'0 2.4
2018-Jun-08 06:30N 37°55' W 009°12'2 3.1
2018-Jun-08 06:00N 37°56' W 009°13'4 7.1
2018-Jun-08 05:31N 37°60' W 009°12'4 7.5
2018-Jun-08 05:01N 38°03' W 009°11'4 7.5
2018-Jun-08 04:30N 38°07' W 009°10'4 7.5
2018-Jun-08 04:00N 38°11' W 009°09'4 7.3
2018-Jun-08 03:31N 38°14' W 009°08'4 7.2
2018-Jun-08 03:00N 38°18' W 009°08'5 7.2
2018-Jun-08 02:18N 38°23' W 009°07'2 7.2
2018-Jun-08 01:59N 38°25' W 009°06'1 2.7
2018-Jun-08 01:30N 38°26' W 009°07'0 0.0
2018-Jun-08 01:00N 38°26' W 009°07'0 0.0
2018-Jun-08 00:29N 38°26' W 009°07'0 0.0
2018-Jun-08 00:00N 38°26' W 009°07'0 0.0
2018-Jun-07 23:28N 38°26' W 009°07'0 0.0
2018-Jun-07 23:00N 38°26' W 009°07'0 0.0
2018-Jun-07 22:28N 38°26' W 009°07'0 0.0
2018-Jun-07 21:55N 38°26' W 009°07'0 0.0
2018-Jun-07 21:30N 38°26' W 009°07'0 0.0
2018-Jun-07 21:00N 38°26' W 009°07'0 0.0
2018-Jun-07 20:30N 38°26' W 009°07'0 0.0
2018-Jun-07 20:00N 38°26' W 009°07'0 0.0
2018-Jun-07 19:30N 38°26' W 009°07'0 0.0
2018-Jun-07 19:00N 38°26' W 009°07'0 0.0
2018-Jun-07 18:30N 38°26' W 009°07'0 0.0
2018-Jun-07 18:00N 38°26' W 009°07'0 0.0
2018-Jun-07 17:25N 38°26' W 009°07'0 0.0
2018-Jun-07 17:00N 38°26' W 009°07'0 0.0
2018-Jun-07 16:30N 38°26' W 009°07'0 0.3
2018-Jun-07 15:59N 38°26' W 009°07'0 0.0
2018-Jun-07 15:20N 38°26' W 009°07'1 2.9
2018-Jun-07 15:01N 38°26' W 009°06'4 7.6
2018-Jun-07 14:30N 38°22' W 009°07'4 7.6
2018-Jun-07 14:00N 38°18' W 009°07'4 7.6
2018-Jun-07 13:31N 38°14' W 009°07'4 7.7
2018-Jun-07 13:00N 38°10' W 009°08'  
Track history (hours):
 
Tides and Currents Weather Stations Pressure Air Temp Water Temp Dewpoint Dewpoint Depression Visibility Wind Speed Wind Dir Waves Ship Positions

Antonio Ramos

Last reported at 2018-Jun-17 05:34 UTC. Time now 2018-Jun-18 19:32 UTC.
Position N 38°03' W 009°11'.

Type: Fishing. MMSI: 263406740.

Date/timePositionNaut miles runAvg speedWind from/ knotsBaromVisibWave heightAir tempDewpointWater temp
2018-Jun-17 05:34N 38°03' W 009°11'0 7.2
2018-Jun-17 05:31N 38°03' W 009°11'4 7.2
2018-Jun-17 05:01N 38°07' W 009°10'3 7.0
2018-Jun-17 04:30N 38°10' W 009°09'3 6.9
2018-Jun-17 04:00N 38°14' W 009°09'4 7.0
2018-Jun-17 03:30N 38°17' W 009°08'4 7.1
2018-Jun-17 03:00N 38°21' W 009°08'4 7.1
2018-Jun-17 02:29N 38°24' W 009°07'2 3.9
2018-Jun-17 02:00N 38°26' W 009°07'0 0.0
2018-Jun-17 01:30N 38°26' W 009°07'0 0.0
2018-Jun-17 01:01N 38°26' W 009°07'0 0.0
2018-Jun-17 00:30N 38°26' W 009°07'0 0.0
2018-Jun-16 23:57N 38°26' W 009°07'0 0.0
2018-Jun-16 23:30N 38°26' W 009°07'0 0.0
2018-Jun-16 23:00N 38°26' W 009°07'0 0.0
2018-Jun-16 22:29N 38°26' W 009°07'0 0.0
2018-Jun-16 22:00N 38°26' W 009°07'0 0.0
2018-Jun-16 21:30N 38°26' W 009°07'1 2.6
2018-Jun-16 20:58N 38°25' W 009°07'2 5.0
2018-Jun-16 20:30N 38°23' W 009°07'2 4.3
2018-Jun-16 20:00N 38°21' W 009°07'2 4.5
2018-Jun-16 19:30N 38°18' W 009°07'18 1.4
2018-Jun-16 06:26N 38°00' W 009°11'1 2.9
2018-Jun-16 06:00N 38°01' W 009°10'3 5.9
2018-Jun-16 05:30N 37°60' W 009°06'3 6.0
2018-Jun-16 05:00N 37°59' W 009°03'3 5.9
2018-Jun-16 04:31N 37°58' W 008°59'3 6.0
2018-Jun-16 04:00N 37°57' W 008°56'3 5.2
2018-Jun-16 03:30N 37°57' W 008°52'0 0.1
2018-Jun-15 22:43N 37°57' W 008°52'0 0.0
2018-Jun-15 22:30N 37°57' W 008°52'0 0.0
2018-Jun-15 22:00N 37°57' W 008°52'0 0.0
2018-Jun-15 21:30N 37°57' W 008°52'0 0.0
2018-Jun-15 21:00N 37°57' W 008°52'0 0.0
2018-Jun-15 20:30N 37°57' W 008°52'0 0.0
2018-Jun-15 20:00N 37°57' W 008°52'0 0.9
2018-Jun-15 19:30N 37°57' W 008°52'3 5.8
2018-Jun-15 19:00N 37°56' W 008°56'3 6.8
2018-Jun-15 18:30N 37°58' W 009°00'9 0.8
2018-Jun-15 06:53N 38°01' W 009°11'3 7.0
2018-Jun-15 06:30N 38°04' W 009°10'4 7.0
2018-Jun-15 06:00N 38°08' W 009°10'3 7.1
2018-Jun-15 05:31N 38°11' W 009°09'4 7.0
2018-Jun-15 05:01N 38°14' W 009°08'3 6.9
2018-Jun-15 04:31N 38°18' W 009°08'6 7.2
2018-Jun-15 03:39N 38°24' W 009°07'1 7.5
2018-Jun-15 03:30N 38°25' W 009°06'1 0.3
2018-Jun-14 23:30N 38°26' W 009°07'0 0.0
2018-Jun-14 23:00N 38°26' W 009°07'0 0.0
2018-Jun-14 22:30N 38°26' W 009°07'0 0.0
2018-Jun-14 22:00N 38°26' W 009°07'0 0.0
2018-Jun-14 21:28N 38°26' W 009°07'0 0.0
2018-Jun-14 20:57N 38°26' W 009°07'0 0.0
2018-Jun-14 20:30N 38°26' W 009°07'0 0.0
2018-Jun-14 20:00N 38°26' W 009°07'0 0.0
2018-Jun-14 19:30N 38°26' W 009°07'0 0.0
2018-Jun-14 19:00N 38°26' W 009°07'0 0.0
2018-Jun-14 18:29N 38°26' W 009°07'0 0.0
2018-Jun-14 17:58N 38°26' W 009°07'0 0.0
2018-Jun-14 17:30N 38°26' W 009°07'0 0.0
2018-Jun-14 17:00N 38°26' W 009°07'0 0.0
2018-Jun-14 16:30N 38°26' W 009°07'0 0.0
2018-Jun-14 16:00N 38°26' W 009°07'0 0.2
2018-Jun-14 15:30N 38°26' W 009°07'2 4.3
2018-Jun-14 15:00N 38°24' W 009°07'4 7.5
2018-Jun-14 14:30N 38°20' W 009°07'3 7.0
2018-Jun-14 14:01N 38°17' W 009°08'3 6.8
2018-Jun-14 13:31N 38°14' W 009°08'23 3.0
2018-Jun-14 06:04N 37°51' W 009°13'0 2.2
2018-Jun-14 06:00N 37°51' W 009°13'1 2.6
2018-Jun-14 05:31N 37°50' W 009°13'2 3.7
2018-Jun-14 05:00N 37°51' W 009°11'4 7.2
2018-Jun-14 04:30N 37°52' W 009°06'3 6.9
2018-Jun-14 04:01N 37°53' W 009°02'3 6.8
2018-Jun-14 03:30N 37°54' W 008°58'4 7.1
2018-Jun-14 03:01N 37°56' W 008°54'2 3.8
2018-Jun-14 02:29N 37°57' W 008°52'0 0.0
2018-Jun-14 02:00N 37°57' W 008°52'0 0.0
2018-Jun-14 01:30N 37°57' W 008°52'0 0.0
2018-Jun-14 01:00N 37°57' W 008°52'0 0.0
2018-Jun-14 00:30N 37°57' W 008°52'0 0.0
2018-Jun-14 00:00N 37°57' W 008°52'0 0.0
2018-Jun-13 23:30N 37°57' W 008°52'0 0.0
2018-Jun-13 23:00N 37°57' W 008°52'0 0.0
2018-Jun-13 22:30N 37°57' W 008°52'0 0.0
2018-Jun-13 22:00N 37°57' W 008°52'0 0.0
2018-Jun-13 21:30N 37°57' W 008°52'2 4.7
2018-Jun-13 21:00N 37°55' W 008°54'3 6.7
2018-Jun-13 20:31N 37°53' W 008°58'3 6.0
2018-Jun-13 20:01N 37°51' W 009°01'2 4.3
2018-Jun-13 19:31N 37°50' W 009°03'11 0.9
2018-Jun-13 06:18N 37°60' W 009°11'1 2.6
2018-Jun-13 06:01N 38°00' W 009°11'3 5.6
2018-Jun-13 05:30N 38°03' W 009°10'4 7.4
2018-Jun-13 05:01N 38°07' W 009°10'4 7.5
2018-Jun-13 04:31N 38°10' W 009°09'4 7.5
2018-Jun-13 04:00N 38°14' W 009°08'4 7.5
2018-Jun-13 03:31N 38°18' W 009°08'5 7.7
2018-Jun-13 02:48N 38°23' W 009°07'3 7.7
2018-Jun-13 02:26N 38°26' W 009°06'1 1.3
2018-Jun-13 02:00N 38°26' W 009°07'0 0.0
2018-Jun-13 01:29N 38°26' W 009°07'0 0.0
2018-Jun-13 01:00N 38°26' W 009°07'0 0.0
2018-Jun-13 00:29N 38°26' W 009°07'0 0.0
2018-Jun-13 00:00N 38°26' W 009°07'0 0.0
2018-Jun-12 23:30N 38°26' W 009°07'0 0.0
2018-Jun-12 23:00N 38°26' W 009°07'0 0.0
2018-Jun-12 22:30N 38°26' W 009°07'0 0.0
2018-Jun-12 22:00N 38°26' W 009°07'0 0.0
2018-Jun-12 21:30N 38°26' W 009°07'0 0.0
2018-Jun-12 21:00N 38°26' W 009°07'0 0.0
2018-Jun-12 20:30N 38°26' W 009°07'0 0.0
2018-Jun-12 20:00N 38°26' W 009°07'0 0.0
2018-Jun-12 19:30N 38°26' W 009°07'0 0.0
2018-Jun-12 19:00N 38°26' W 009°07'0 0.0
2018-Jun-12 18:30N 38°26' W 009°07'0 0.0
2018-Jun-12 18:00N 38°26' W 009°07'0 0.0
2018-Jun-12 17:30N 38°26' W 009°07'0 0.0
2018-Jun-12 17:00N 38°26' W 009°07'0 0.0
2018-Jun-12 16:30N 38°26' W 009°07'2 4.8
2018-Jun-12 16:00N 38°24' W 009°07'4 7.4
2018-Jun-12 15:30N 38°20' W 009°07'4 7.1
2018-Jun-12 15:01N 38°17' W 009°08'4 7.0
2018-Jun-12 14:31N 38°13' W 009°08'3 6.8
2018-Jun-12 14:01N 38°10' W 009°08'  
2018-Jun-10 06:52N 37°57' W 009°12'1 2.5
2018-Jun-10 06:31N 37°58' W 009°12'1 2.4
2018-Jun-10 06:01N 37°59' W 009°12'1 2.6
2018-Jun-10 05:31N 38°00' W 009°11'0 0.6
2018-Jun-10 05:01N 38°01' W 009°11'3 5.6
2018-Jun-10 04:31N 38°03' W 009°10'4 7.1
2018-Jun-10 04:00N 38°07' W 009°10'4 7.1
2018-Jun-10 03:31N 38°10' W 009°09'4 7.4
2018-Jun-10 03:01N 38°14' W 009°09'4 7.4
2018-Jun-10 02:30N 38°18' W 009°08'4 7.3
2018-Jun-10 01:59N 38°22' W 009°07'4 7.3
2018-Jun-10 01:26N 38°25' W 009°07'1 2.1
2018-Jun-10 01:01N 38°26' W 009°07'0 0.0
2018-Jun-10 00:30N 38°26' W 009°07'0 0.0
2018-Jun-10 00:00N 38°26' W 009°07'0 0.0
2018-Jun-09 23:30N 38°26' W 009°07'0 0.0
2018-Jun-09 22:56N 38°26' W 009°07'0 0.0
2018-Jun-09 22:31N 38°26' W 009°07'0 0.0
2018-Jun-09 21:55N 38°26' W 009°07'0 0.0
2018-Jun-09 21:30N 38°26' W 009°07'1 2.2
2018-Jun-09 21:01N 38°25' W 009°06'4 7.4
2018-Jun-09 20:29N 38°21' W 009°06'4 7.4
2018-Jun-09 19:59N 38°18' W 009°07'3 7.3
2018-Jun-09 19:31N 38°14' W 009°08'4 7.2
2018-Jun-09 19:01N 38°11' W 009°08'17 0.5
2018-Jun-08 06:39N 37°55' W 009°12'0 2.4
2018-Jun-08 06:30N 37°55' W 009°12'2 3.1
2018-Jun-08 06:00N 37°56' W 009°13'4 7.1
2018-Jun-08 05:31N 37°60' W 009°12'4 7.5
2018-Jun-08 05:01N 38°03' W 009°11'4 7.5
2018-Jun-08 04:30N 38°07' W 009°10'4 7.5
2018-Jun-08 04:00N 38°11' W 009°09'4 7.3
2018-Jun-08 03:31N 38°14' W 009°08'4 7.2
2018-Jun-08 03:00N 38°18' W 009°08'5 7.2
2018-Jun-08 02:18N 38°23' W 009°07'2 7.2
2018-Jun-08 01:59N 38°25' W 009°06'1 2.7
2018-Jun-08 01:30N 38°26' W 009°07'0 0.0
2018-Jun-08 01:00N 38°26' W 009°07'0 0.0
2018-Jun-08 00:29N 38°26' W 009°07'0 0.0
2018-Jun-08 00:00N 38°26' W 009°07'0 0.0
2018-Jun-07 23:28N 38°26' W 009°07'0 0.0
2018-Jun-07 23:00N 38°26' W 009°07'0 0.0
2018-Jun-07 22:28N 38°26' W 009°07'0 0.0
2018-Jun-07 21:55N 38°26' W 009°07'0 0.0
2018-Jun-07 21:30N 38°26' W 009°07'0 0.0
2018-Jun-07 21:00N 38°26' W 009°07'0 0.0
2018-Jun-07 20:30N 38°26' W 009°07'0 0.0
2018-Jun-07 20:00N 38°26' W 009°07'0 0.0
2018-Jun-07 19:30N 38°26' W 009°07'0 0.0
2018-Jun-07 19:00N 38°26' W 009°07'0 0.0
2018-Jun-07 18:30N 38°26' W 009°07'0 0.0
2018-Jun-07 18:00N 38°26' W 009°07'0 0.0
2018-Jun-07 17:25N 38°26' W 009°07'0 0.0
2018-Jun-07 17:00N 38°26' W 009°07'0 0.0
2018-Jun-07 16:30N 38°26' W 009°07'0 0.3
2018-Jun-07 15:59N 38°26' W 009°07'0 0.0
2018-Jun-07 15:20N 38°26' W 009°07'1 2.9
2018-Jun-07 15:01N 38°26' W 009°06'4 7.6
2018-Jun-07 14:30N 38°22' W 009°07'4 7.6
2018-Jun-07 14:00N 38°18' W 009°07'4 7.6
2018-Jun-07 13:31N 38°14' W 009°07'4 7.7
2018-Jun-07 13:00N 38°10' W 009°08'  

Dump ship's entire track history